Time;durP1;ratioP1;P1;durP2;ratioP2;P2;SDS_P1;SDS_P2;PMS_P1;PMS_P2;Temp;Humidity;BMP_temperature;BMP_pressure;BME280_temperature;BME280_humidity;BME280_pressure;Samples;Min_cycle;Max_cycle;Signal;HPM_P1;HPM_P2
2022/09/02 00:02:00;;;;;;;1.30;1.20;;;;;;;9.12;100.00;101591.09;5050995;28;20055;-81
2022/09/02 00:04:27;;;;;;;2.40;1.92;;;;;;;9.12;100.00;101585.81;5078512;28;20044;-81
2022/09/02 00:06:56;;;;;;;2.60;1.60;;;;;;;9.14;100.00;101584.94;5074340;28;20062;-81
2022/09/02 00:09:24;;;;;;;2.03;1.60;;;;;;;9.14;100.00;101581.41;5053328;28;20089;-81
2022/09/02 00:11:52;;;;;;;2.63;1.60;;;;;;;9.06;100.00;101575.28;5062211;28;20070;-81
2022/09/02 00:14:23;;;;;;;2.37;1.60;;;;;;;9.07;100.00;101592.84;5063581;28;20044;-82
2022/09/02 00:16:50;;;;;;;2.87;1.30;;;;;;;8.96;100.00;101585.81;5062870;28;20095;-81
2022/09/02 00:19:19;;;;;;;2.10;1.33;;;;;;;8.91;100.00;101587.59;5061143;28;20756;-82
2022/09/02 00:21:46;;;;;;;2.23;1.50;;;;;;;8.82;100.00;101584.03;5084618;28;20048;-82
2022/09/02 00:24:12;;;;;;;2.20;1.53;;;;;;;8.87;100.00;101575.25;5054593;28;20045;-83
2022/09/02 00:26:39;;;;;;;1.80;1.57;;;;;;;8.76;100.00;101578.78;5036701;28;20127;-81
2022/09/02 00:29:07;;;;;;;1.70;1.57;;;;;;;8.79;100.00;101584.03;5039291;28;20037;-81
2022/09/02 00:31:35;;;;;;;1.67;1.37;;;;;;;8.77;100.00;101584.03;5050031;28;20037;-81
2022/09/02 00:34:03;;;;;;;2.25;1.73;;;;;;;8.81;100.00;101579.63;5055307;28;20044;-81
2022/09/02 00:36:29;;;;;;;2.67;1.70;;;;;;;8.71;100.00;101578.75;5056539;28;20044;-81
2022/09/02 00:38:56;;;;;;;1.80;1.47;;;;;;;8.71;100.00;101578.75;5082020;28;20060;-81
2022/09/02 00:41:25;;;;;;;2.58;1.80;;;;;;;8.66;100.00;101588.38;5067981;28;20036;-81
2022/09/02 00:43:56;;;;;;;3.23;1.60;;;;;;;8.60;100.00;101597.16;5067672;28;20678;-82
2022/09/02 00:46:25;;;;;;;1.57;1.47;;;;;;;8.61;100.00;101590.16;5072432;28;20040;-80
2022/09/02 00:48:56;;;;;;;2.10;1.67;;;;;;;8.58;100.00;101583.13;5050176;28;20075;-81
2022/09/02 00:51:24;;;;;;;2.60;1.73;;;;;;;8.55;100.00;101582.22;5073767;28;20044;-81
2022/09/02 00:53:52;;;;;;;3.33;1.70;;;;;;;8.56;100.00;101581.34;5051374;28;20036;-82
2022/09/02 00:56:25;;;;;;;2.17;1.73;;;;;;;8.57;100.00;101585.72;5040779;28;20510;-80
2022/09/02 00:58:52;;;;;;;2.43;1.50;;;;;;;8.59;100.00;101578.75;5046750;28;20041;-81
2022/09/02 01:01:21;;;;;;;2.20;1.50;;;;;;;8.62;100.00;101576.09;5065495;28;20077;-82
2022/09/02 01:03:48;;;;;;;2.47;1.53;;;;;;;8.57;100.00;101575.19;5074819;28;20501;-80
2022/09/02 01:06:23;;;;;;;2.67;1.73;;;;;;;8.55;100.00;101580.47;5069543;28;20544;-81
2022/09/02 01:08:59;;;;;;;2.10;1.40;;;;;;;8.51;100.00;101577.84;5069507;28;20042;-82
2022/09/02 01:11:37;;;;;;;2.73;1.63;;;;;;;8.46;100.00;101581.31;5053747;28;20047;-82
2022/09/02 01:14:06;;;;;;;1.97;1.63;;;;;;;8.46;100.00;101580.44;5055642;28;20051;-80
2022/09/02 01:16:38;;;;;;;1.77;1.53;;;;;;;8.41;100.00;101575.19;5058083;28;20132;-81
2022/09/02 01:19:15;;;;;;;2.10;1.60;;;;;;;8.32;100.00;101575.09;5070657;28;21876;-81
2022/09/02 01:21:47;;;;;;;2.50;1.80;;;;;;;8.29;100.00;101580.34;5068312;28;20040;-82
2022/09/02 01:24:15;;;;;;;1.73;1.53;;;;;;;8.24;100.00;101578.56;5073662;28;20068;-80
2022/09/02 01:26:41;;;;;;;2.30;1.83;;;;;;;8.26;100.00;101572.47;5053584;28;20055;-81
2022/09/02 01:29:08;;;;;;;2.53;1.60;;;;;;;8.30;100.00;101571.56;5065946;28;20040;-80
2022/09/02 01:31:35;;;;;;;3.77;2.03;;;;;;;8.31;100.00;101572.47;5052361;28;20504;-82
2022/09/02 01:34:02;;;;;;;2.67;1.60;;;;;;;8.28;100.00;101572.47;5064703;28;20450;-80
2022/09/02 01:36:29;;;;;;;2.00;1.53;;;;;;;8.23;100.00;101572.44;5071129;28;20051;-81
2022/09/02 01:38:58;;;;;;;2.43;1.80;;;;;;;8.24;100.00;101574.22;5044204;28;20040;-81
2022/09/02 01:41:25;;;;;;;2.53;1.63;;;;;;;8.25;100.00;101557.53;5065352;28;20048;-82
2022/09/02 01:43:51;;;;;;;1.90;1.70;;;;;;;8.30;100.00;101568.06;5063537;28;20129;-82
2022/09/02 01:46:19;;;;;;;3.73;1.70;;;;;;;8.24;100.00;101561.06;5046880;28;20035;-80
2022/09/02 01:48:45;;;;;;;3.20;1.80;;;;;;;8.18;100.00;101561.03;5067851;28;20035;-81
2022/09/02 01:51:16;;;;;;;2.40;1.97;;;;;;;8.17;100.00;101567.16;5060659;28;20048;-80
2022/09/02 01:53:43;;;;;;;2.50;1.90;;;;;;;8.10;100.00;101560.13;5041951;28;20048;-81
2022/09/02 01:56:10;;;;;;;2.60;1.97;;;;;;;8.06;100.00;101563.59;5060625;28;20037;-81
2022/09/02 01:58:36;;;;;;;2.00;1.80;;;;;;;8.06;100.00;101553.06;5051841;28;20056;-81
2022/09/02 02:01:03;;;;;;;2.53;1.90;;;;;;;8.03;100.00;101550.44;5070554;28;20423;-81
2022/09/02 02:03:30;;;;;;;3.57;1.70;;;;;;;8.05;100.00;101546.91;5073323;28;20070;-82
2022/09/02 02:05:56;;;;;;;1.67;1.50;;;;;;;8.05;100.00;101548.66;5068540;28;20051;-81
2022/09/02 02:08:23;;;;;;;2.43;1.60;;;;;;;7.89;100.00;101543.34;5061025;28;20028;-81
2022/09/02 02:10:50;;;;;;;1.43;1.33;;;;;;;7.83;100.00;101550.34;5049252;28;20390;-81
2022/09/02 02:13:16;;;;;;;1.97;1.60;;;;;;;7.76;100.00;101553.81;5050500;28;20528;-81
2022/09/02 02:15:43;;;;;;;3.07;1.97;;;;;;;7.77;100.00;101553.81;5062270;28;20040;-81
2022/09/02 02:18:10;;;;;;;3.27;2.17;;;;;;;7.84;100.00;101552.09;5052394;28;20043;-83
2022/09/02 02:20:37;;;;;;;3.60;1.90;;;;;;;7.83;100.00;101552.97;5054572;28;20098;-81
2022/09/02 02:23:05;;;;;;;2.93;1.90;;;;;;;7.89;100.00;101559.13;5057642;28;20412;-81
2022/09/02 02:25:32;;;;;;;2.60;1.60;;;;;;;7.95;100.00;101563.53;5072794;28;20040;-82
2022/09/02 02:27:58;;;;;;;2.10;1.63;;;;;;;7.94;100.00;101550.38;5069756;28;20048;-81
2022/09/02 02:30:27;;;;;;;3.57;1.73;;;;;;;7.95;100.00;101550.38;5052893;28;20450;-80
2022/09/02 02:32:54;;;;;;;3.13;1.67;;;;;;;7.98;100.00;101552.16;5066340;28;20058;-82
2022/09/02 02:35:21;;;;;;;2.03;1.57;;;;;;;7.89;100.00;101555.63;5064292;28;20493;-81
2022/09/02 02:37:49;;;;;;;2.13;1.60;;;;;;;7.85;100.00;101546.84;5042709;28;20036;-81
2022/09/02 02:40:19;;;;;;;2.80;1.60;;;;;;;7.76;100.00;101543.28;5056913;28;20044;-80
2022/09/02 02:42:46;;;;;;;2.37;1.60;;;;;;;7.69;100.00;101542.38;5036518;28;20051;-81
2022/09/02 02:45:13;;;;;;;3.00;2.00;;;;;;;7.64;100.00;101551.97;5050366;28;20056;-81
2022/09/02 02:47:41;;;;;;;3.67;2.67;;;;;;;7.64;100.00;101546.72;5050858;28;20049;-81
2022/09/02 02:50:10;;;;;;;2.80;1.57;;;;;;;7.76;100.00;101551.19;5051663;28;20405;-82
2022/09/02 02:52:39;;;;;;;3.00;2.00;;;;;;;7.83;100.00;101548.59;5059401;28;20686;-81
2022/09/02 02:55:07;;;;;;;2.73;1.80;;;;;;;7.85;100.00;101538.94;5051792;28;20382;-81
2022/09/02 02:57:34;;;;;;;2.17;1.60;;;;;;;7.88;100.00;101541.59;5060467;28;20489;-81
2022/09/02 03:00:05;;;;;;;2.20;1.70;;;;;;;7.74;100.00;101543.28;5055643;28;20066;-82
2022/09/02 03:02:33;;;;;;;2.73;1.80;;;;;;;7.72;100.00;101533.59;5049659;28;20036;-81
2022/09/02 03:05:00;;;;;;;3.90;1.80;;;;;;;7.71;100.00;101540.63;5048346;28;20127;-82
2022/09/02 03:07:27;;;;;;;3.77;1.40;;;;;;;7.74;100.00;101537.16;5065707;28;20135;-82
2022/09/02 03:09:54;;;;;;;2.40;1.97;;;;;;;7.73;100.00;101536.25;5047474;28;20127;-82
2022/09/02 03:12:20;;;;;;;3.27;1.77;;;;;;;7.67;100.00;101541.50;5052083;28;20044;-82
2022/09/02 03:14:47;;;;;;;3.30;1.80;;;;;;;7.59;100.00;101527.41;5067158;28;20049;-81
2022/09/02 03:17:14;;;;;;;2.13;1.87;;;;;;;7.54;100.00;101539.66;5049885;28;20479;-80
2022/09/02 03:19:41;;;;;;;2.23;1.70;;;;;;;7.48;100.00;101539.59;5063101;28;20475;-80
2022/09/02 03:22:09;;;;;;;3.10;1.70;;;;;;;7.53;100.00;101541.41;5051452;28;20040;-82
2022/09/02 03:24:36;;;;;;;3.60;2.10;;;;;;;7.59;100.00;101533.56;5040529;28;20063;-82
2022/09/02 03:27:03;;;;;;;2.50;1.73;;;;;;;7.55;100.00;101538.78;5041539;28;20037;-81
2022/09/02 03:29:30;;;;;;;3.20;2.00;;;;;;;7.63;100.00;101527.44;5072284;28;20435;-82
2022/09/02 03:31:57;;;;;;;3.87;1.60;;;;;;;7.58;100.00;101528.28;5059729;28;20102;-82
2022/09/02 03:34:24;;;;;;;2.40;1.63;;;;;;;7.57;100.00;101527.41;5069666;28;20082;-81
2022/09/02 03:36:50;;;;;;;2.33;1.60;;;;;;;7.51;100.00;101531.75;5080601;28;20042;-82
2022/09/02 03:39:19;;;;;;;3.90;1.90;;;;;;;7.61;100.00;101521.28;5052122;28;20417;-81
2022/09/02 03:41:48;;;;;;;3.70;1.90;;;;;;;7.62;100.00;101524.78;5050946;28;20123;-82
2022/09/02 03:44:15;;;;;;;2.20;1.80;;;;;;;7.52;100.00;101533.50;5085678;28;20028;-82
2022/09/02 03:46:42;;;;;;;2.97;2.00;;;;;;;7.54;100.00;101531.75;5065566;28;20156;-81
2022/09/02 03:49:08;;;;;;;2.50;1.60;;;;;;;7.45;100.00;101529.97;5084006;28;20478;-81
2022/09/02 03:51:39;;;;;;;2.13;1.93;;;;;;;7.45;100.00;101529.06;5070457;28;20480;-82
2022/09/02 03:54:06;;;;;;;3.10;2.17;;;;;;;7.43;100.00;101530.81;5050161;28;20044;-80
2022/09/02 03:56:33;;;;;;;3.80;1.90;;;;;;;7.40;100.00;101531.69;5068794;28;20493;-82
2022/09/02 03:59:00;;;;;;;3.37;1.37;;;;;;;7.37;100.00;101534.28;5146170;23;20044;-81
2022/09/02 04:01:28;;;;;;;2.03;1.63;;;;;;;7.28;100.00;101534.22;5078527;28;20132;-81
2022/09/02 04:04:00;;;;;;;2.80;1.63;;;;;;;7.29;100.00;101530.72;5057047;28;20052;-82
2022/09/02 04:06:27;;;;;;;2.60;1.93;;;;;;;7.26;100.00;101535.97;5068822;28;20388;-81
2022/09/02 04:08:58;;;;;;;2.53;1.80;;;;;;;7.27;100.00;101535.09;5072291;28;20120;-81
2022/09/02 04:11:25;;;;;;;2.73;1.70;;;;;;;7.28;100.00;101540.34;5076685;28;20045;-80
2022/09/02 04:13:52;;;;;;;2.30;1.73;;;;;;;7.32;100.00;101534.28;5075894;28;20043;-81
2022/09/02 04:16:27;;;;;;;2.67;1.60;;;;;;;7.33;100.00;101530.78;5090164;28;20044;-82
2022/09/02 04:18:56;;;;;;;2.07;1.83;;;;;;;7.33;100.00;101535.16;5086565;28;20047;-82
2022/09/02 04:21:24;;;;;;;1.90;1.60;;;;;;;7.35;100.00;101525.50;5065214;28;20067;-82
2022/09/02 04:23:51;;;;;;;2.43;1.80;;;;;;;7.40;100.00;101533.41;5052655;28;20086;-81
2022/09/02 04:26:19;;;;;;;2.40;1.70;;;;;;;7.36;100.00;101529.91;5074616;28;20048;-82
2022/09/02 04:28:47;;;;;;;2.23;1.90;;;;;;;7.33;100.00;101533.41;5066015;28;20485;-81
2022/09/02 04:31:16;;;;;;;2.00;1.70;;;;;;;7.35;100.00;101541.28;5069388;28;20040;-81
2022/09/02 04:33:43;;;;;;;3.20;1.97;;;;;;;7.34;100.00;101534.28;5062392;28;20041;-81
2022/09/02 04:36:13;;;;;;;2.80;1.80;;;;;;;7.30;100.00;101530.72;5062604;28;20048;-81
2022/09/02 04:38:40;;;;;;;3.00;1.70;;;;;;;7.39;100.00;101529.03;5076462;28;20036;-81
2022/09/02 04:41:09;;;;;;;2.67;1.87;;;;;;;7.31;100.00;101527.25;5062048;28;20032;-81
2022/09/02 04:43:36;;;;;;;2.30;1.77;;;;;;;7.40;100.00;101529.06;5084533;28;20036;-81
2022/09/02 04:46:04;;;;;;;2.67;1.67;;;;;;;7.41;100.00;101524.69;5066962;28;20118;-81
2022/09/02 04:48:32;;;;;;;2.73;2.00;;;;;;;7.43;100.00;101526.44;5073646;28;20409;-81
2022/09/02 04:51:06;;;;;;;2.63;1.60;;;;;;;7.37;100.00;101529.03;5065923;28;20539;-81
2022/09/02 04:53:33;;;;;;;3.33;1.98;;;;;;;7.40;100.00;101525.53;5068774;28;20036;-81
2022/09/02 04:56:07;;;;;;;3.67;2.60;;;;;;;7.39;100.00;101534.28;5055737;28;20036;-81
2022/09/02 04:58:35;;;;;;;2.90;1.97;;;;;;;7.38;100.00;101537.78;5065967;28;20508;-82
2022/09/02 05:01:10;;;;;;;3.37;1.90;;;;;;;7.47;100.00;101533.47;5051098;28;20036;-82
2022/09/02 05:03:37;;;;;;;2.47;1.67;;;;;;;7.40;100.00;101531.69;5068100;28;20051;-82
2022/09/02 05:06:06;;;;;;;2.30;1.80;;;;;;;7.52;100.00;101536.13;5055430;28;20448;-82
2022/09/02 05:08:35;;;;;;;2.40;1.80;;;;;;;7.54;100.00;101543.16;5074063;28;20401;-82
2022/09/02 05:11:12;;;;;;;2.50;2.00;;;;;;;7.63;100.00;101540.56;5056495;28;20036;-81
2022/09/02 05:13:39;;;;;;;3.10;1.90;;;;;;;7.61;100.00;101536.19;5070951;28;20040;-82
2022/09/02 05:16:06;;;;;;;2.77;1.90;;;;;;;7.58;100.00;101536.19;5059963;28;20115;-82
2022/09/02 05:18:33;;;;;;;2.10;1.60;;;;;;;7.58;100.00;101530.94;5074802;28;20125;-82
2022/09/02 05:21:04;;;;;;;2.23;1.87;;;;;;;7.61;100.00;101536.19;5072522;28;20143;-82
2022/09/02 05:23:31;;;;;;;2.77;2.17;;;;;;;7.74;100.00;101531.88;5091015;28;20043;-82
2022/09/02 05:25:57;;;;;;;4.23;1.90;;;;;;;7.75;100.00;101536.28;5071898;28;20058;-82
2022/09/02 05:28:24;;;;;;;2.50;2.10;;;;;;;7.78;100.00;101534.53;5085151;28;20055;-82
2022/09/02 05:30:50;;;;;;;2.30;1.87;;;;;;;7.83;100.00;101538.06;5047689;28;20051;-81
2022/09/02 05:33:17;;;;;;;2.33;1.70;;;;;;;7.87;100.00;101538.94;5056920;28;20127;-81
2022/09/02 05:35:44;;;;;;;2.43;2.13;;;;;;;7.84;100.00;101538.94;5054227;28;20640;-82
2022/09/02 05:38:13;;;;;;;2.73;1.80;;;;;;;7.89;100.00;101538.06;5064121;28;20560;-82
2022/09/02 05:40:40;;;;;;;4.80;1.93;;;;;;;7.97;100.00;101530.22;5077098;28;20082;-82
2022/09/02 05:43:07;;;;;;;1.97;1.70;;;;;;;8.01;100.00;101536.38;5090879;28;20064;-81
2022/09/02 05:45:36;;;;;;;2.60;1.90;;;;;;;8.05;100.00;101546.03;5072088;28;20135;-82
2022/09/02 05:49:04;;;;;;;2.27;1.83;;;;;;;8.21;100.00;101536.44;5057561;28;20055;-81
2022/09/02 05:50:50;;;;;;;2.30;1.70;;;;;;;8.33;100.00;101536.50;5077067;28;20048;-81
2022/09/02 05:53:25;;;;;;;2.67;1.70;;;;;;;8.45;100.00;101539.19;5071468;28;20512;-82
2022/09/02 05:55:52;;;;;;;2.60;2.00;;;;;;;8.44;100.00;101548.84;5055192;28;20032;-82
2022/09/02 05:58:20;;;;;;;3.20;2.30;;;;;;;8.80;100.00;101536.59;5067620;28;20044;-82
2022/09/02 06:00:46;;;;;;;3.23;1.93;;;;;;;8.88;100.00;101542.75;5065586;28;20135;-80
2022/09/02 06:03:13;;;;;;;2.80;2.10;;;;;;;9.02;100.00;101540.13;5090809;28;20453;-80
2022/09/02 06:05:41;;;;;;;2.10;1.70;;;;;;;9.03;100.00;101547.16;5065929;28;20555;-80
2022/09/02 06:08:08;;;;;;;5.10;1.97;;;;;;;9.14;100.00;101542.75;5070738;28;20051;-81
2022/09/02 06:10:40;;;;;;;3.53;2.13;;;;;;;9.43;100.00;101544.50;5058460;28;20067;-81
2022/09/02 06:13:07;;;;;;;3.65;2.35;;;;;;;9.51;100.00;101540.97;5081024;28;20036;-80
2022/09/02 06:15:33;;;;;;;4.43;2.60;;;;;;;9.69;100.00;101536.53;5063397;28;20032;-81
2022/09/02 06:18:00;;;;;;;3.67;2.50;;;;;;;9.92;100.00;101537.34;5054237;28;20044;-80
2022/09/02 06:20:31;;;;;;;3.05;1.92;;;;;;;10.06;100.00;101543.41;5085697;28;20043;-81
2022/09/02 06:22:57;;;;;;;2.00;1.70;;;;;;;10.54;100.00;101544.09;5089611;28;20032;-80
2022/09/02 06:25:24;;;;;;;2.03;1.70;;;;;;;11.73;100.00;101540.41;5067499;28;20080;-81
2022/09/02 06:27:50;;;;;;;1.90;1.30;;;;;;;13.09;100.00;101532.34;5044504;28;20040;-80
2022/09/02 06:30:17;;;;;;;2.10;1.45;;;;;;;13.76;100.00;101536.47;5060810;28;20036;-79
2022/09/02 06:32:44;;;;;;;3.83;1.50;;;;;;;14.17;100.00;101532.09;5069566;28;20439;-81
2022/09/02 06:35:16;;;;;;;2.00;1.50;;;;;;;14.43;100.00;101539.47;5075980;28;20090;-80
2022/09/02 06:37:43;;;;;;;2.33;1.45;;;;;;;14.40;100.00;101544.88;5056964;28;20039;-80
2022/09/02 06:40:10;;;;;;;2.05;1.42;;;;;;;14.26;100.00;101535.41;5103491;28;20039;-80
2022/09/02 06:42:37;;;;;;;2.95;1.30;;;;;;;14.27;100.00;101536.28;5053450;28;20128;-80
2022/09/02 06:45:04;;;;;;;1.75;1.52;;;;;;;14.28;100.00;101532.72;5084914;28;20036;-80
2022/09/02 06:47:31;;;;;;;1.40;1.30;;;;;;;14.91;100.00;101541.03;5077492;28;20040;-81
2022/09/02 06:49:58;;;;;;;2.40;1.40;;;;;;;15.09;100.00;101534.38;5053645;28;20032;-80
2022/09/02 06:52:25;;;;;;;3.45;1.80;;;;;;;14.94;100.00;101537.41;5052543;28;20036;-80
2022/09/02 06:54:53;;;;;;;1.92;1.40;;;;;;;14.85;100.00;101535.84;5053863;28;20045;-80
2022/09/02 06:57:20;;;;;;;1.90;1.63;;;;;;;15.02;100.00;101526.59;5073223;28;20039;-80
2022/09/02 06:59:50;;;;;;;1.77;1.38;;;;;;;14.99;100.00;101532.88;5091358;28;20036;-80
2022/09/02 07:02:17;;;;;;;3.25;1.50;;;;;;;15.23;95.87;101530.50;5072977;28;20036;-81
2022/09/02 07:07:29;;;;;;;2.97;1.60;;;;;;;15.92;93.97;101524.19;5091988;28;20048;-81
2022/09/02 07:09:55;;;;;;;1.77;1.30;;;;;;;15.83;96.40;101529.78;5090714;28;20040;-81
2022/09/02 07:12:25;;;;;;;2.75;1.92;;;;;;;15.76;99.20;101527.28;5090021;28;20581;-81
2022/09/02 07:14:53;;;;;;;3.15;1.50;;;;;;;16.42;96.60;101520.03;5053800;28;20043;-81
2022/09/02 07:17:20;;;;;;;7.82;1.80;;;;;;;17.08;85.83;101518.78;5054947;28;20032;-81
2022/09/02 07:19:48;;;;;;;2.25;1.40;;;;;;;17.19;76.65;101514.88;5086881;28;20036;-80
2022/09/02 07:22:15;;;;;;;2.35;1.50;;;;;;;17.59;78.18;101517.03;5079277;28;20043;-80
2022/09/02 07:24:44;;;;;;;2.08;1.52;;;;;;;17.03;77.34;101523.41;5069750;28;20036;-81
2022/09/02 07:27:11;;;;;;;4.13;1.50;;;;;;;17.50;78.33;101514.69;5062807;28;20041;-81
2022/09/02 07:29:38;;;;;;;1.50;1.10;;;;;;;17.84;75.67;101517.06;5053391;28;20051;-81
2022/09/02 07:32:04;;;;;;;3.40;1.83;;;;;;;18.34;75.32;101514.25;5088442;28;20136;-80
2022/09/02 07:34:31;;;;;;;2.33;1.45;;;;;;;18.39;74.24;101515.78;5088954;28;20051;-81
2022/09/02 07:36:58;;;;;;;1.92;1.38;;;;;;;18.44;73.32;101516.50;5079854;28;20044;-79
2022/09/02 07:39:31;;;;;;;3.00;1.70;;;;;;;18.43;72.80;101512.09;5066152;28;20111;-80
2022/09/02 07:41:58;;;;;;;2.05;1.20;;;;;;;18.25;71.36;101512.81;5050457;28;20044;-80
2022/09/02 07:44:26;;;;;;;2.22;1.45;;;;;;;18.22;73.28;101511.09;5080795;28;20032;-80
2022/09/02 07:46:53;;;;;;;2.95;1.63;;;;;;;18.35;70.09;101514.19;5079518;28;20511;-80
2022/09/02 07:49:20;;;;;;;1.50;1.23;;;;;;;18.46;70.38;101514.63;5076885;28;20038;-80
2022/09/02 07:51:50;;;;;;;1.25;1.13;;;;;;;18.41;71.72;101513.94;5053201;28;20504;-79
2022/09/02 07:54:20;;;;;;;2.92;1.50;;;;;;;18.47;74.85;101518.16;5087913;28;20043;-80
2022/09/02 07:56:48;;;;;;;1.60;1.40;;;;;;;18.16;74.00;101510.47;5073661;28;20047;-79
2022/09/02 07:59:15;;;;;;;1.70;1.30;;;;;;;17.65;76.06;101515.00;5076905;28;20036;-79
2022/09/02 08:01:42;;;;;;;2.42;1.33;;;;;;;17.86;74.30;101513.38;5072696;28;20040;-79
2022/09/02 08:04:14;;;;;;;2.25;1.55;;;;;;;17.95;68.22;101507.69;5092498;28;20123;-79
2022/09/02 08:06:41;;;;;;;1.70;1.20;;;;;;;17.82;74.73;101514.41;5083589;28;20055;-80
2022/09/02 08:09:11;;;;;;;2.20;1.48;;;;;;;17.89;68.55;101513.25;5091569;28;20069;-80
2022/09/02 08:11:40;;;;;;;1.48;1.20;;;;;;;17.97;65.99;101516.50;5079087;28;20087;-79
2022/09/02 08:14:08;;;;;;;2.38;1.20;;;;;;;17.92;68.92;101514.97;5063153;28;20036;-80
2022/09/02 08:16:37;;;;;;;1.45;1.20;;;;;;;18.07;70.54;101510.81;5064157;28;20106;-80
2022/09/02 08:19:06;;;;;;;1.63;1.40;;;;;;;18.07;68.00;101503.66;5089588;28;20032;-81
2022/09/02 08:21:33;;;;;;;1.83;1.10;;;;;;;18.25;67.86;101515.50;5088809;28;20036;-79
2022/09/02 08:23:59;;;;;;;1.23;1.13;;;;;;;18.16;68.88;101511.38;5070558;28;20421;-80
2022/09/02 08:26:27;;;;;;;1.67;1.20;;;;;;;18.09;69.00;101508.97;5076837;28;20040;-80
2022/09/02 08:28:54;;;;;;;1.77;1.25;;;;;;;18.32;68.47;101519.63;5089154;28;20048;-80
2022/09/02 08:31:21;;;;;;;1.95;1.55;;;;;;;18.30;68.56;101508.13;5090750;28;20194;-79
2022/09/02 08:33:48;;;;;;;2.70;1.40;;;;;;;18.14;71.76;101512.34;5064760;28;20048;-80
2022/09/02 08:36:14;;;;;;;2.90;1.40;;;;;;;18.09;73.14;101508.97;5067340;28;20117;-80
2022/09/02 08:38:41;;;;;;;1.77;1.35;;;;;;;18.27;68.68;101513.63;5082514;28;20047;-80
2022/09/02 08:41:33;;;;;;;2.35;1.50;;;;;;;18.50;65.15;101510.03;5079555;28;20032;-80
2022/09/02 08:44:00;;;;;;;1.45;1.20;;;;;;;18.66;68.55;101512.97;5080115;28;20492;-80
2022/09/02 08:46:30;;;;;;;1.30;1.13;;;;;;;18.67;59.65;101517.44;5078882;28;20071;-79
2022/09/02 08:49:39;;;;;;;1.10;1.00;;;;;;;18.66;63.25;101507.63;5085504;28;20036;-80
2022/09/02 08:52:06;;;;;;;1.42;1.00;;;;;;;18.48;58.22;101512.75;4996403;28;20555;-80
2022/09/02 08:54:43;;;;;;;1.20;0.90;;;;;;;18.86;61.45;101507.69;4985747;28;20057;-80
2022/09/02 08:57:10;;;;;;;2.67;1.08;;;;;;;19.13;57.75;101505.66;5038364;28;20487;-81
2022/09/02 08:59:37;;;;;;;1.98;0.82;;;;;;;19.44;57.24;101502.53;5060674;28;20044;-80
2022/09/02 09:02:23;;;;;;;2.28;0.85;;;;;;;19.41;55.36;101506.19;5078212;28;20035;-80
2022/09/02 09:05:09;;;;;;;0.98;0.88;;;;;;;19.47;53.88;101497.03;5092053;28;20044;-80
2022/09/02 09:08:20;;;;;;;1.98;1.17;;;;;;;19.91;57.28;101503.09;5101548;28;20044;-81
2022/09/02 09:11:11;;;;;;;2.50;1.00;;;;;;;19.99;54.40;101497.38;5034218;28;20118;-81
2022/09/02 09:14:14;;;;;;;1.63;0.90;;;;;;;20.15;53.16;101494.88;5073969;28;20052;-81
2022/09/02 09:16:54;;;;;;;1.60;1.08;;;;;;;20.31;54.08;101487.81;5073879;28;20519;-80
2022/09/02 09:19:31;;;;;;;1.42;1.10;;;;;;;20.62;53.04;101492.63;5094504;28;20052;-81
2022/09/02 09:22:02;;;;;;;1.15;0.90;;;;;;;20.73;53.86;101492.09;5064197;28;20067;-82
2022/09/02 09:24:37;;;;;;;1.77;1.10;;;;;;;20.78;52.21;101487.38;5079474;28;20046;-82
2022/09/02 09:27:16;;;;;;;3.30;1.75;;;;;;;20.43;51.74;101486.34;5073866;28;20036;-81
2022/09/02 09:29:42;;;;;;;1.00;0.90;;;;;;;20.38;52.02;101485.72;5081057;28;20044;-82
2022/09/02 09:32:32;;;;;;;1.40;1.00;;;;;;;20.14;54.13;101482.41;5064414;28;20393;-82
2022/09/02 09:35:08;;;;;;;2.22;1.13;;;;;;;20.36;54.96;101484.94;5062034;28;20820;-81
2022/09/02 09:37:39;;;;;;;1.80;1.20;;;;;;;20.17;55.13;101480.41;5073484;28;20044;-81
2022/09/02 09:40:24;;;;;;;1.45;1.13;;;;;;;20.37;54.02;101478.63;5093172;28;20032;-81
2022/09/02 09:43:09;;;;;;;2.72;1.15;;;;;;;20.17;54.08;101474.19;5073171;28;20048;-80
2022/09/02 09:45:48;;;;;;;2.20;1.27;;;;;;;19.82;54.41;101479.38;5065738;28;20040;-80
2022/09/02 09:48:15;;;;;;;2.30;1.23;;;;;;;19.74;55.58;101478.88;5081275;28;20082;-82
2022/09/02 09:51:12;;;;;;;1.55;1.23;;;;;;;20.29;56.39;101479.00;5070789;28;20579;-83
2022/09/02 09:53:39;;;;;;;1.40;1.25;;;;;;;20.85;53.40;101470.00;5078993;28;20063;-83
2022/09/02 09:56:12;;;;;;;1.30;1.00;;;;;;;21.30;51.20;101464.09;5080608;28;20429;-81
2022/09/02 09:58:38;;;;;;;2.10;1.52;;;;;;;21.44;49.64;101467.88;5090670;28;20040;-82
2022/09/02 10:01:14;;;;;;;1.80;1.23;;;;;;;21.45;49.59;101469.63;5089463;28;20123;-81
2022/09/02 10:04:24;;;;;;;1.20;1.10;;;;;;;20.97;52.25;101464.00;5063648;28;20044;-83
2022/09/02 10:07:02;;;;;;;1.42;1.20;;;;;;;20.62;53.46;101462.22;4998674;28;20072;-81
2022/09/02 10:09:32;;;;;;;2.92;1.20;;;;;;;20.20;53.06;101469.56;4996962;28;20482;-80
2022/09/02 10:12:07;;;;;;;2.50;1.20;;;;;;;19.78;55.76;101461.72;4966320;28;20040;-80
2022/09/02 10:14:41;;;;;;;1.65;1.13;;;;;;;19.76;57.04;101460.03;4983075;28;20077;-78
2022/09/02 10:17:23;;;;;;;1.83;1.30;;;;;;;19.57;58.37;101458.19;4980712;28;20661;-81
2022/09/02 10:19:58;;;;;;;1.92;1.20;;;;;;;19.31;61.16;101467.34;4993384;28;20047;-80
2022/09/02 10:22:32;;;;;;;1.63;1.10;;;;;;;19.26;56.30;101457.81;4986336;28;20107;-81
2022/09/02 10:25:41;;;;;;;1.23;1.10;;;;;;;19.16;58.57;101456.44;5014280;28;20458;-82
2022/09/02 10:28:20;;;;;;;1.67;1.10;;;;;;;19.19;57.11;101461.69;4983413;28;20062;-81
2022/09/02 10:31:11;;;;;;;1.50;1.30;;;;;;;19.53;53.11;101451.22;4979648;28;20052;-84
2022/09/02 10:34:02;;;;;;;1.98;1.30;;;;;;;20.31;50.95;101452.94;4984254;28;20410;-78
2022/09/02 10:36:39;;;;;;;1.98;1.23;;;;;;;20.13;50.34;101446.66;4961162;28;20038;-79
2022/09/02 10:39:38;;;;;;;2.28;1.13;;;;;;;19.95;52.55;101452.88;4998729;28;20049;-77
2022/09/02 10:42:19;;;;;;;2.05;1.38;;;;;;;20.44;53.05;101445.22;4997392;28;20044;-78
2022/09/02 10:45:16;;;;;;;1.42;1.30;;;;;;;20.54;51.88;101448.31;4969152;28;20042;-83
2022/09/02 10:48:12;;;;;;;1.60;1.20;;;;;;;20.35;51.59;101451.88;4956203;28;20054;-79
2022/09/02 10:50:48;;;;;;;2.45;1.35;;;;;;;19.98;52.10;101450.06;4973842;28;20050;-80
2022/09/02 10:53:32;;;;;;;1.15;1.02;;;;;;;19.66;56.81;101441.69;4972826;28;20070;-81
2022/09/02 10:56:02;;;;;;;1.15;1.05;;;;;;;19.46;56.69;101439.03;4983525;28;20057;-79
2022/09/02 10:58:38;;;;;;;4.32;1.88;;;;;;;19.44;56.77;101443.59;4994585;28;20522;-79
2022/09/02 11:01:06;;;;;;;2.38;1.27;;;;;;;19.39;55.47;101442.91;4992708;28;20037;-82
2022/09/02 11:03:52;;;;;;;3.60;1.60;;;;;;;19.24;59.29;101443.59;4994656;28;20416;-81
2022/09/02 11:06:23;;;;;;;2.13;1.33;;;;;;;19.02;60.28;101444.53;4975397;28;20046;-81
2022/09/02 11:09:29;;;;;;;2.47;1.40;;;;;;;19.10;55.74;101441.53;4993396;28;20030;-81
2022/09/02 11:12:09;;;;;;;3.28;1.33;;;;;;;19.14;58.25;101440.44;4979791;28;20038;-78
2022/09/02 11:14:47;;;;;;;1.45;1.20;;;;;;;19.08;62.35;101435.34;4982994;28;20042;-83
2022/09/02 11:17:29;;;;;;;2.28;1.05;;;;;;;19.05;56.89;101431.00;4967384;28;20045;-79
2022/09/02 11:20:23;;;;;;;1.73;1.33;;;;;;;19.31;51.30;101429.84;4979337;28;20058;-81
2022/09/02 11:23:23;;;;;;;2.00;1.20;;;;;;;19.71;52.58;101419.16;4986441;28;20042;-79
2022/09/02 11:26:37;;;;;;;2.25;1.20;;;;;;;20.38;52.61;101410.56;4995504;28;20553;-78
2022/09/02 11:29:41;;;;;;;2.22;1.20;;;;;;;20.95;45.96;101416.69;4986214;28;20045;-80
2022/09/02 11:32:29;;;;;;;1.67;1.40;;;;;;;21.43;43.87;101410.53;4943161;29;20043;-79
2022/09/02 11:34:57;;;;;;;1.80;1.10;;;;;;;21.62;41.27;101407.75;4990470;28;20053;-80
2022/09/02 11:37:33;;;;;;;5.93;1.50;;;;;;;21.97;44.43;101405.78;4992980;28;20054;-82
2022/09/02 11:40:11;;;;;;;2.17;1.30;;;;;;;22.02;41.79;101406.38;5016857;28;20045;-80
2022/09/02 11:43:13;;;;;;;1.48;1.15;;;;;;;21.50;41.62;101408.41;4984754;28;20129;-81
2022/09/02 11:46:05;;;;;;;5.03;1.50;;;;;;;21.38;43.07;101407.25;5008816;28;20072;-80
2022/09/02 11:48:39;;;;;;;1.52;1.30;;;;;;;20.88;43.06;101405.38;5000732;28;20105;-80